Details for Flybe at EGTE




Go Back


Latest METAR
Local Time

EGTE 250450Z 34005KT 4000 BR FEW025 12/12 Q1018

25/05/2018, 06:00:24

Description
Results
Flybe Logo
Number of Pilots based at EGTE
0 Pilots Based here
Number of Flybe Flights Departed from EGTE
14 Flights Departed
Number of Flybe Flights Arrived at EGTE
14 Flights Arrived
Number of Flybe Schedules Departing from EGTE
38 Schedules
Number of Flybe Schedules Arriving at EGTE
39 Schedules
Number of Flybe Schedules Departing from EGTE availible today
16 Schedules Today
Number of Flybe Schedules Arriving at EGTE availible today
17 Schedules Today
Average Landing Rate at EGTE
-215 fpm
Flybe Average Landing Rate at EGTE
-159 fpm
Total Fuel Purchased at EGTE by Flybe
13,385.53 kgs / 29,509.74 lbs

Pilots Based at EGTE


Pilot ID
Pilot Name
Pilot Rank
No. of Flights
No. of Flying Hours
There are no pilots assigned to this hub!   Will you be the first?
Content